Time;durP1;ratioP1;P1;durP2;ratioP2;P2;SDS_P1;SDS_P2;PMS_P1;PMS_P2;Temp;Humidity;BMP_temperature;BMP_pressure;BME280_temperature;BME280_humidity;BME280_pressure;Samples;Min_cycle;Max_cycle;Signal;HPM_P1;HPM_P2
2021/07/23 00:02:13;;;;;;;16.08;11.52;;;18.20;99.90;;;;;;5061554;28;20075;-70
2021/07/23 00:04:40;;;;;;;17.17;10.50;;;18.10;99.90;;;;;;5050931;28;20049;-69
2021/07/23 00:07:08;;;;;;;14.60;11.45;;;18.10;99.90;;;;;;5051628;28;20049;-69
2021/07/23 00:09:35;;;;;;;14.80;11.25;;;18.00;99.90;;;;;;5051900;28;20139;-70
2021/07/23 00:12:03;;;;;;;19.42;13.10;;;18.00;99.90;;;;;;5049242;28;20501;-70
2021/07/23 00:14:30;;;;;;;15.55;11.00;;;17.90;99.90;;;;;;5052283;28;20470;-70
2021/07/23 00:16:58;;;;;;;16.90;11.98;;;17.80;99.90;;;;;;5083583;28;20098;-70
2021/07/23 00:19:25;;;;;;;16.98;11.77;;;17.80;99.90;;;;;;5049184;28;20041;-70
2021/07/23 00:21:53;;;;;;;20.98;12.23;;;17.70;99.90;;;;;;5051282;28;20095;-70
2021/07/23 00:24:20;;;;;;;15.43;11.65;;;17.70;99.90;;;;;;5048141;28;20057;-70
2021/07/23 00:26:51;;;;;;;17.40;12.20;;;17.60;99.90;;;;;;5031386;28;20469;-70
2021/07/23 00:29:20;;;;;;;16.80;12.13;;;17.60;99.90;;;;;;5049792;28;20063;-70
2021/07/23 00:31:47;;;;;;;18.50;12.20;;;17.50;99.90;;;;;;5052028;28;20687;-70
2021/07/23 00:34:16;;;;;;;17.85;12.20;;;17.50;99.90;;;;;;5033535;28;20384;-70
2021/07/23 00:36:44;;;;;;;16.42;11.35;;;17.50;99.90;;;;;;5033540;28;20045;-70
2021/07/23 00:39:12;;;;;;;17.48;12.32;;;17.50;99.90;;;;;;5048276;28;20045;-70
2021/07/23 00:41:39;;;;;;;17.55;11.90;;;17.40;99.90;;;;;;5051294;28;20049;-70
2021/07/23 00:44:06;;;;;;;16.58;11.10;;;17.40;99.90;;;;;;5083060;28;20091;-70
2021/07/23 00:46:35;;;;;;;15.73;11.30;;;17.30;99.90;;;;;;5045740;28;20049;-70
2021/07/23 00:49:03;;;;;;;16.95;12.50;;;17.30;99.90;;;;;;5049816;28;20037;-71
2021/07/23 00:51:32;;;;;;;15.98;12.25;;;17.30;99.90;;;;;;5033229;28;20037;-70
2021/07/23 00:54:01;;;;;;;17.85;13.13;;;17.20;99.90;;;;;;5047867;28;20107;-70
2021/07/23 00:56:30;;;;;;;17.50;12.32;;;17.20;99.90;;;;;;5049813;28;20033;-70
2021/07/23 00:58:59;;;;;;;17.58;12.05;;;17.20;99.90;;;;;;5050365;28;20430;-70
2021/07/23 01:01:28;;;;;;;17.80;11.75;;;17.20;99.90;;;;;;5037754;28;20131;-71
2021/07/23 01:04:02;;;;;;;15.30;11.93;;;17.10;99.90;;;;;;5033523;28;20041;-70
2021/07/23 01:06:34;;;;;;;18.27;12.52;;;17.10;99.90;;;;;;5048453;28;20112;-70
2021/07/23 01:09:05;;;;;;;19.92;12.57;;;17.10;99.90;;;;;;5049606;28;20033;-70
2021/07/23 01:11:37;;;;;;;16.95;12.23;;;17.00;99.90;;;;;;5056101;28;20069;-70
2021/07/23 01:14:26;;;;;;;16.70;13.05;;;17.00;99.90;;;;;;5049725;28;20786;-70
2021/07/23 01:16:54;;;;;;;16.70;13.15;;;16.90;99.90;;;;;;5049533;28;20033;-70
2021/07/23 01:19:26;;;;;;;16.48;12.18;;;16.90;99.90;;;;;;5032672;28;20052;-70
2021/07/23 01:21:58;;;;;;;16.33;12.68;;;16.80;99.90;;;;;;5077704;28;20090;-70
2021/07/23 01:24:27;;;;;;;15.60;11.45;;;16.80;99.90;;;;;;5039221;28;20041;-69
2021/07/23 01:26:59;;;;;;;18.75;13.40;;;16.80;99.90;;;;;;5049886;28;20049;-69
2021/07/23 01:30:07;;;;;;;20.10;12.70;;;16.70;99.90;;;;;;5045515;28;20041;-69
2021/07/23 01:32:38;;;;;;;20.17;13.95;;;16.70;99.90;;;;;;5049205;28;20040;-69
2021/07/23 01:35:07;;;;;;;20.23;13.00;;;16.60;99.90;;;;;;5049571;28;20037;-69
2021/07/23 01:37:38;;;;;;;17.85;13.50;;;16.60;99.90;;;;;;5053546;28;20056;-69
2021/07/23 01:40:08;;;;;;;18.20;13.57;;;16.60;99.90;;;;;;5035332;28;20040;-69
2021/07/23 01:42:37;;;;;;;19.83;13.82;;;16.60;99.90;;;;;;5054485;28;20041;-69
2021/07/23 01:45:05;;;;;;;20.92;14.02;;;16.50;99.90;;;;;;5053548;28;20048;-69
2021/07/23 01:47:32;;;;;;;19.67;13.68;;;16.50;99.90;;;;;;5084617;28;20037;-69
2021/07/23 01:50:01;;;;;;;17.55;12.95;;;16.50;99.90;;;;;;5069011;28;20052;-69
2021/07/23 01:52:33;;;;;;;20.27;13.60;;;16.40;99.90;;;;;;5052091;28;20041;-69
2021/07/23 01:55:05;;;;;;;18.35;13.30;;;16.40;99.90;;;;;;5035316;28;20081;-69
2021/07/23 01:57:41;;;;;;;18.95;13.60;;;16.40;99.90;;;;;;5086351;28;20524;-69
2021/07/23 02:00:09;;;;;;;21.98;14.05;;;16.40;99.90;;;;;;5056890;28;20047;-69
2021/07/23 02:02:45;;;;;;;17.42;12.73;;;16.40;99.90;;;;;;5039173;28;20037;-70
2021/07/23 02:05:24;;;;;;;22.15;14.65;;;16.40;99.90;;;;;;5052758;28;20563;-69
2021/07/23 02:07:52;;;;;;;19.10;13.27;;;16.30;99.90;;;;;;5051956;28;20495;-68
2021/07/23 02:10:21;;;;;;;16.38;12.77;;;16.30;99.90;;;;;;5034712;28;20065;-69
2021/07/23 02:12:48;;;;;;;17.83;13.55;;;16.20;99.90;;;;;;5051872;28;20115;-68
2021/07/23 02:15:29;;;;;;;17.90;12.65;;;16.20;99.90;;;;;;5036349;28;20147;-68
2021/07/23 02:17:57;;;;;;;19.60;13.13;;;16.10;99.90;;;;;;5052206;28;20037;-68
2021/07/23 02:20:29;;;;;;;18.55;11.73;;;16.10;99.90;;;;;;5052932;28;20575;-70
2021/07/23 02:22:56;;;;;;;21.13;13.77;;;16.10;99.90;;;;;;5035002;28;20033;-68
2021/07/23 02:25:36;;;;;;;16.90;11.73;;;16.10;99.90;;;;;;5053873;28;20037;-68
2021/07/23 02:28:05;;;;;;;17.92;12.45;;;16.10;99.90;;;;;;5051908;28;20463;-69
2021/07/23 02:30:33;;;;;;;19.63;12.35;;;16.10;99.90;;;;;;5036196;28;20068;-69
2021/07/23 02:33:17;;;;;;;16.40;12.25;;;16.10;99.90;;;;;;5035539;28;20049;-69
2021/07/23 02:35:44;;;;;;;20.45;12.85;;;16.00;99.90;;;;;;5051362;28;20041;-69
2021/07/23 02:38:12;;;;;;;17.65;11.90;;;16.00;99.90;;;;;;5085869;28;20041;-69
2021/07/23 02:40:45;;;;;;;16.15;11.68;;;16.00;99.90;;;;;;5052422;28;20051;-69
2021/07/23 02:43:12;;;;;;;17.58;12.20;;;16.00;99.90;;;;;;5052002;28;20082;-68
2021/07/23 02:45:41;;;;;;;15.82;12.00;;;16.00;99.90;;;;;;5035097;28;20052;-68
2021/07/23 02:48:09;;;;;;;16.15;12.15;;;15.90;99.90;;;;;;5033129;28;20095;-69
2021/07/23 02:50:38;;;;;;;19.70;12.57;;;15.90;99.90;;;;;;5035293;28;20049;-68
2021/07/23 02:53:06;;;;;;;17.40;12.98;;;15.90;99.90;;;;;;5018115;28;20539;-68
2021/07/23 02:55:34;;;;;;;16.35;11.70;;;15.90;99.90;;;;;;5050846;28;20072;-68
2021/07/23 02:58:03;;;;;;;17.33;11.77;;;15.90;99.90;;;;;;5051276;28;20037;-70
2021/07/23 03:00:32;;;;;;;15.55;11.05;;;15.90;99.90;;;;;;5055080;28;20033;-68
2021/07/23 03:03:04;;;;;;;14.98;11.80;;;16.00;99.90;;;;;;5050803;28;20412;-68
2021/07/23 03:05:35;;;;;;;16.40;11.40;;;15.90;99.90;;;;;;5052035;28;20400;-69
2021/07/23 03:08:09;;;;;;;15.85;12.00;;;15.90;99.90;;;;;;5051285;28;20140;-69
2021/07/23 03:10:47;;;;;;;14.68;11.77;;;15.90;99.90;;;;;;5035041;28;20061;-69
2021/07/23 03:13:16;;;;;;;13.93;10.65;;;15.90;99.90;;;;;;5034558;28;20056;-69
2021/07/23 03:15:44;;;;;;;19.13;11.38;;;15.90;99.90;;;;;;5055670;28;20506;-69
2021/07/23 03:18:17;;;;;;;18.00;11.82;;;15.80;99.90;;;;;;5051033;28;20036;-69
2021/07/23 03:20:45;;;;;;;14.07;11.32;;;15.80;99.90;;;;;;5035190;28;20094;-69
2021/07/23 03:23:15;;;;;;;17.60;11.45;;;15.80;99.90;;;;;;5050058;28;20041;-69
2021/07/23 03:25:50;;;;;;;18.10;12.65;;;15.80;99.90;;;;;;5049633;28;20500;-68
2021/07/23 03:28:33;;;;;;;16.13;11.52;;;15.80;99.90;;;;;;5066888;28;20048;-68
2021/07/23 03:31:31;;;;;;;18.30;12.20;;;15.70;99.90;;;;;;5041526;28;20515;-68
2021/07/23 03:34:06;;;;;;;17.60;12.13;;;15.70;99.90;;;;;;5051192;28;20111;-69
2021/07/23 03:36:54;;;;;;;15.63;11.75;;;15.60;99.90;;;;;;5050577;28;20068;-69
2021/07/23 03:39:41;;;;;;;20.08;13.23;;;15.60;99.90;;;;;;5051820;28;20049;-69
2021/07/23 03:42:09;;;;;;;17.23;12.63;;;15.60;99.90;;;;;;5050882;28;20068;-69
2021/07/23 03:44:46;;;;;;;15.13;11.55;;;15.60;99.90;;;;;;5034065;28;20044;-69
2021/07/23 03:47:15;;;;;;;16.52;12.20;;;15.60;99.90;;;;;;5051255;28;20188;-69
2021/07/23 03:49:44;;;;;;;18.05;11.98;;;15.70;99.90;;;;;;5030502;28;20107;-69
2021/07/23 03:52:14;;;;;;;17.25;12.38;;;15.60;99.90;;;;;;5050947;28;20110;-69
2021/07/23 03:55:04;;;;;;;17.27;12.63;;;15.70;99.90;;;;;;5050318;28;20106;-68
2021/07/23 03:57:36;;;;;;;17.15;11.55;;;15.70;99.90;;;;;;5061604;28;20072;-69
2021/07/23 04:00:06;;;;;;;16.13;12.30;;;15.70;99.90;;;;;;5047968;28;20090;-68
2021/07/23 04:02:44;;;;;;;16.55;12.45;;;15.70;99.90;;;;;;5037290;28;20041;-69
2021/07/23 04:05:13;;;;;;;18.85;12.40;;;15.70;99.90;;;;;;5049353;28;20072;-69
2021/07/23 04:07:42;;;;;;;16.15;12.10;;;15.70;99.90;;;;;;5047868;28;20139;-69
2021/07/23 04:10:10;;;;;;;15.40;11.43;;;15.80;99.90;;;;;;5048871;28;20049;-69
2021/07/23 04:12:38;;;;;;;19.48;12.63;;;15.80;99.90;;;;;;5025039;28;20076;-69
2021/07/23 04:15:09;;;;;;;17.67;12.93;;;15.80;99.90;;;;;;5049880;28;20045;-69
2021/07/23 04:17:57;;;;;;;17.30;12.35;;;15.90;99.90;;;;;;5049314;28;20120;-69
2021/07/23 04:20:25;;;;;;;19.60;13.15;;;16.00;99.90;;;;;;5048991;28;20063;-69
2021/07/23 04:22:54;;;;;;;20.75;13.45;;;16.00;99.90;;;;;;5048346;28;20108;-69
2021/07/23 04:25:22;;;;;;;19.45;13.15;;;16.00;99.90;;;;;;5049622;28;20044;-69
2021/07/23 04:27:49;;;;;;;20.95;13.15;;;16.00;99.90;;;;;;5049248;28;20373;-69
2021/07/23 04:30:23;;;;;;;18.42;12.68;;;16.00;99.90;;;;;;5028188;28;20046;-69
2021/07/23 04:33:09;;;;;;;18.67;12.55;;;16.10;99.90;;;;;;5048567;28;20071;-69
2021/07/23 04:35:43;;;;;;;22.33;13.40;;;16.20;99.90;;;;;;5048950;28;20515;-69
2021/07/23 04:38:10;;;;;;;18.75;12.93;;;16.20;99.90;;;;;;5058809;28;20044;-69
2021/07/23 04:40:43;;;;;;;19.27;12.68;;;16.30;99.90;;;;;;5050957;28;20124;-69
2021/07/23 04:43:19;;;;;;;21.40;11.30;;;16.30;99.90;;;;;;5031737;28;20037;-69
2021/07/23 04:45:47;;;;;;;14.75;11.35;;;16.40;99.90;;;;;;5044726;28;20068;-69
2021/07/23 04:48:16;;;;;;;16.27;11.95;;;16.50;99.90;;;;;;5048565;28;20045;-69
2021/07/23 04:51:07;;;;;;;16.23;12.13;;;16.50;99.90;;;;;;5046279;28;20045;-69
2021/07/23 04:53:53;;;;;;;17.60;12.32;;;16.60;99.90;;;;;;5049208;28;20037;-69
2021/07/23 04:56:20;;;;;;;16.50;11.13;;;16.60;99.90;;;;;;5050558;28;20124;-69
2021/07/23 04:58:47;;;;;;;16.02;12.07;;;16.70;99.90;;;;;;5046410;28;20072;-69
2021/07/23 05:01:16;;;;;;;16.27;11.35;;;16.80;99.90;;;;;;5048607;28;20110;-69
2021/07/23 05:03:44;;;;;;;20.55;12.43;;;16.80;99.90;;;;;;5049407;28;20041;-69
2021/07/23 05:06:12;;;;;;;16.75;11.70;;;16.90;99.90;;;;;;5048313;28;20051;-69
2021/07/23 05:08:40;;;;;;;17.30;11.65;;;17.00;99.90;;;;;;5044460;28;20132;-69
2021/07/23 05:11:15;;;;;;;16.85;12.50;;;17.10;99.90;;;;;;5065517;28;20596;-69
2021/07/23 05:13:48;;;;;;;17.13;11.27;;;17.10;99.90;;;;;;5047111;28;20041;-69
2021/07/23 05:16:16;;;;;;;18.00;11.70;;;17.20;99.90;;;;;;5048797;28;20422;-69
2021/07/23 05:18:45;;;;;;;17.38;12.30;;;17.30;99.90;;;;;;5048885;28;20075;-69
2021/07/23 05:21:12;;;;;;;15.63;11.13;;;17.40;99.90;;;;;;5050986;28;20083;-69
2021/07/23 05:23:42;;;;;;;16.00;11.55;;;17.40;99.90;;;;;;5048045;28;20053;-70
2021/07/23 05:26:10;;;;;;;17.63;12.05;;;17.50;99.90;;;;;;5083076;28;20498;-70
2021/07/23 05:28:37;;;;;;;17.60;12.65;;;17.50;99.90;;;;;;5065803;28;20565;-71
2021/07/23 05:31:06;;;;;;;18.58;12.73;;;17.60;99.90;;;;;;5050973;28;20063;-70
2021/07/23 05:33:34;;;;;;;21.85;13.18;;;17.70;99.90;;;;;;5051090;28;20059;-70
2021/07/23 05:36:02;;;;;;;19.13;12.85;;;17.70;99.90;;;;;;5031121;28;20152;-70
2021/07/23 05:38:29;;;;;;;17.67;13.27;;;17.80;99.90;;;;;;5032404;28;20048;-68
2021/07/23 05:41:05;;;;;;;18.80;12.30;;;17.90;99.90;;;;;;5048963;28;20411;-69
2021/07/23 05:43:33;;;;;;;17.85;12.25;;;17.90;99.90;;;;;;5048665;28;20048;-69
2021/07/23 05:46:07;;;;;;;17.95;12.43;;;18.00;99.90;;;;;;5048006;28;20073;-69
2021/07/23 05:48:38;;;;;;;20.15;13.55;;;18.10;99.90;;;;;;5029945;28;20504;-68
2021/07/23 05:51:07;;;;;;;19.00;13.70;;;18.20;99.90;;;;;;5048145;28;20412;-68
2021/07/23 05:53:35;;;;;;;19.35;13.52;;;18.20;99.90;;;;;;5045705;28;20061;-68
2021/07/23 05:56:04;;;;;;;19.65;14.90;;;18.20;99.90;;;;;;5032381;28;20172;-68
2021/07/23 05:58:32;;;;;;;22.27;14.15;;;18.20;99.90;;;;;;5029511;28;20099;-69
2021/07/23 06:01:04;;;;;;;24.10;15.13;;;18.30;99.90;;;;;;5085205;28;20037;-70
2021/07/23 06:03:32;;;;;;;17.33;12.65;;;18.20;99.90;;;;;;5049270;28;20087;-70
2021/07/23 06:06:01;;;;;;;21.85;12.90;;;18.30;99.90;;;;;;5049259;28;20462;-69
2021/07/23 06:08:29;;;;;;;20.83;14.18;;;18.50;99.90;;;;;;5048957;28;20064;-69
2021/07/23 06:11:02;;;;;;;19.20;12.95;;;18.60;99.90;;;;;;5049254;28;20099;-69
2021/07/23 06:13:44;;;;;;;18.20;12.13;;;18.80;99.90;;;;;;5049622;28;20474;-70
2021/07/23 06:16:13;;;;;;;23.30;15.60;;;18.90;99.90;;;;;;5050460;28;20044;-70
2021/07/23 06:18:40;;;;;;;20.33;13.15;;;18.90;99.90;;;;;;5048944;28;20052;-69
2021/07/23 06:21:08;;;;;;;20.40;13.25;;;18.80;99.90;;;;;;5049181;28;20068;-72
2021/07/23 06:23:36;;;;;;;32.60;15.40;;;18.80;99.90;;;;;;5035038;28;20041;-71
2021/07/23 06:26:05;;;;;;;20.40;14.52;;;18.90;99.90;;;;;;5036624;28;20143;-71
2021/07/23 06:28:32;;;;;;;23.70;14.07;;;18.90;99.90;;;;;;5041828;28;20101;-71
2021/07/23 06:31:00;;;;;;;23.27;15.45;;;19.10;99.90;;;;;;5085766;28;20060;-70
2021/07/23 06:33:28;;;;;;;23.63;15.00;;;19.10;99.90;;;;;;5085576;28;20076;-70
2021/07/23 06:35:56;;;;;;;28.10;16.92;;;19.20;99.90;;;;;;5052883;28;20124;-71
2021/07/23 06:38:23;;;;;;;22.33;16.08;;;19.20;99.90;;;;;;5051733;28;20144;-71
2021/07/23 06:40:53;;;;;;;23.17;15.10;;;19.50;99.90;;;;;;5052229;28;20052;-71
2021/07/23 06:43:21;;;;;;;21.13;16.38;;;19.60;99.90;;;;;;5053101;28;20080;-71
2021/07/23 06:45:55;;;;;;;22.23;15.00;;;19.70;99.90;;;;;;5035259;28;20600;-71
2021/07/23 06:48:24;;;;;;;21.70;14.15;;;19.80;99.90;;;;;;5052764;28;20455;-71
2021/07/23 06:50:51;;;;;;;22.40;15.30;;;19.90;99.90;;;;;;5053395;28;20427;-70
2021/07/23 06:53:19;;;;;;;22.08;14.25;;;20.10;99.90;;;;;;5051684;28;20037;-71
2021/07/23 06:55:47;;;;;;;24.90;16.05;;;20.30;99.90;;;;;;5067929;28;20119;-70
2021/07/23 06:58:15;;;;;;;23.80;15.73;;;20.40;99.90;;;;;;5083651;28;20128;-71
2021/07/23 07:00:47;;;;;;;23.33;14.43;;;20.20;99.90;;;;;;5035687;28;20080;-72
2021/07/23 07:03:15;;;;;;;22.00;14.90;;;20.30;99.90;;;;;;5048872;28;20076;-72
2021/07/23 07:05:42;;;;;;;22.85;13.93;;;20.30;99.90;;;;;;5054029;28;20121;-71
2021/07/23 07:08:09;;;;;;;23.92;15.43;;;20.50;99.90;;;;;;5050255;28;20468;-71
2021/07/23 07:10:36;;;;;;;25.08;16.13;;;20.60;99.90;;;;;;5053029;28;20132;-72
2021/07/23 07:13:04;;;;;;;20.35;14.05;;;20.60;99.90;;;;;;5050859;28;20068;-72
2021/07/23 07:15:31;;;;;;;20.20;14.05;;;20.70;99.90;;;;;;5043812;28;20099;-71
2021/07/23 07:18:00;;;;;;;23.40;14.77;;;20.90;99.90;;;;;;5051579;28;20045;-71
2021/07/23 07:20:29;;;;;;;25.55;17.42;;;21.00;99.90;;;;;;5048796;28;20111;-72
2021/07/23 07:22:56;;;;;;;27.00;17.98;;;21.00;99.90;;;;;;5052196;28;20053;-71
2021/07/23 07:25:25;;;;;;;23.88;15.82;;;20.90;99.90;;;;;;5044714;28;20388;-72
2021/07/23 07:27:57;;;;;;;23.58;16.50;;;20.90;99.90;;;;;;5051184;28;20116;-71
2021/07/23 07:30:25;;;;;;;;;;;21.10;99.90;;;;;;5051971;28;20037;-71
2021/07/23 07:32:52;;;;;;;19.33;14.75;;;21.10;99.90;;;;;;5050478;28;19924;-71
2021/07/23 07:35:20;;;;;;;25.15;17.83;;;21.20;99.90;;;;;;5050401;28;20045;-71
2021/07/23 07:37:47;;;;;;;26.25;16.48;;;21.40;99.90;;;;;;5047155;28;20094;-70
2021/07/23 07:40:15;;;;;;;29.38;16.83;;;21.30;99.90;;;;;;5049073;28;20113;-71
2021/07/23 07:42:42;;;;;;;26.05;16.67;;;21.20;99.90;;;;;;5050908;28;20143;-71
2021/07/23 07:45:10;;;;;;;24.23;17.00;;;21.30;99.90;;;;;;5083379;28;20044;-71
2021/07/23 07:47:38;;;;;;;20.55;14.30;;;21.50;99.90;;;;;;5083779;28;20037;-70
2021/07/23 07:50:06;;;;;;;22.67;16.10;;;21.50;99.90;;;;;;5051891;28;20048;-71
2021/07/23 07:52:33;;;;;;;23.15;16.23;;;21.70;99.90;;;;;;5050743;28;20041;-71
2021/07/23 07:55:01;;;;;;;27.08;18.60;;;21.90;99.90;;;;;;5033875;28;20041;-71
2021/07/23 07:57:28;;;;;;;24.55;17.55;;;21.80;99.90;;;;;;5050480;28;20044;-70
2021/07/23 07:59:57;;;;;;;20.90;14.98;;;21.90;99.90;;;;;;5052715;28;20044;-70
2021/07/23 08:02:24;;;;;;;25.00;17.80;;;22.10;99.90;;;;;;5050445;28;20046;-70
2021/07/23 08:04:53;;;;;;;24.73;17.58;;;22.30;99.90;;;;;;5033384;28;20056;-70
2021/07/23 08:07:28;;;;;;;27.55;16.98;;;22.30;99.90;;;;;;5050213;28;21421;-71
2021/07/23 08:10:02;;;;;;;22.67;15.43;;;22.30;99.90;;;;;;5049424;28;20487;-70
2021/07/23 08:12:30;;;;;;;30.25;17.58;;;22.40;99.90;;;;;;5050192;28;20037;-71
2021/07/23 08:15:01;;;;;;;20.77;15.40;;;22.50;99.90;;;;;;5051255;28;20434;-71
2021/07/23 08:17:28;;;;;;;24.02;16.30;;;22.50;99.90;;;;;;5050286;28;20060;-72
2021/07/23 08:19:59;;;;;;;23.50;17.52;;;22.60;99.90;;;;;;5049556;28;20045;-72
2021/07/23 08:22:29;;;;;;;22.65;14.82;;;22.60;99.90;;;;;;5049746;28;20507;-71
2021/07/23 08:24:56;;;;;;;21.67;15.75;;;22.70;99.90;;;;;;5044279;28;20045;-71
2021/07/23 08:27:24;;;;;;;22.30;15.75;;;22.80;99.90;;;;;;5050309;28;20558;-70
2021/07/23 08:29:51;;;;;;;22.88;16.60;;;23.00;99.90;;;;;;5066240;28;20514;-71
2021/07/23 08:32:19;;;;;;;21.98;14.50;;;23.10;99.90;;;;;;5050426;28;20060;-70
2021/07/23 08:34:47;;;;;;;23.98;16.08;;;23.20;99.90;;;;;;5051250;28;20104;-72
2021/07/23 08:37:15;;;;;;;21.92;14.93;;;23.30;99.90;;;;;;5049524;28;20041;-71
2021/07/23 08:39:42;;;;;;;24.83;17.00;;;23.40;99.90;;;;;;5049520;28;20049;-70
2021/07/23 08:42:29;;;;;;;21.85;15.55;;;23.50;99.90;;;;;;5048471;28;20037;-70
2021/07/23 08:44:58;;;;;;;26.25;15.98;;;23.70;99.90;;;;;;5081327;28;20064;-70
2021/07/23 08:47:26;;;;;;;20.13;13.60;;;23.60;99.90;;;;;;5048848;28;20041;-70
2021/07/23 08:49:54;;;;;;;23.63;15.95;;;23.60;99.90;;;;;;5050483;28;20056;-70
2021/07/23 08:52:41;;;;;;;19.92;13.45;;;23.70;99.90;;;;;;5049502;28;20569;-71
2021/07/23 08:55:11;;;;;;;18.40;14.32;;;23.80;99.90;;;;;;5048735;28;20041;-70
2021/07/23 08:57:39;;;;;;;20.80;14.57;;;23.80;99.90;;;;;;5049729;28;20055;-71
2021/07/23 09:00:25;;;;;;;23.83;15.27;;;23.90;99.90;;;;;;5051320;28;20037;-71
2021/07/23 09:03:00;;;;;;;22.08;13.93;;;23.80;99.90;;;;;;5047332;28;20041;-71
2021/07/23 09:05:34;;;;;;;22.13;14.15;;;23.80;99.90;;;;;;5047822;28;20128;-68
2021/07/23 09:08:07;;;;;;;22.30;13.60;;;24.00;99.90;;;;;;5047094;28;20045;-68
2021/07/23 09:10:36;;;;;;;19.50;13.85;;;24.10;99.90;;;;;;5049750;28;20049;-69
2021/07/23 09:13:05;;;;;;;23.92;14.57;;;24.10;99.90;;;;;;5045365;28;20041;-68
2021/07/23 09:15:37;;;;;;;24.58;14.80;;;24.10;99.90;;;;;;5048260;28;20037;-68
2021/07/23 09:18:35;;;;;;;;;;;24.20;99.90;;;;;;5048164;28;20102;-69
2021/07/23 09:21:05;;;;;;;20.63;14.20;;;24.30;99.90;;;;;;5051121;28;19986;-68
2021/07/23 09:23:39;;;;;;;20.92;14.55;;;24.30;99.90;;;;;;5050154;28;20045;-68
2021/07/23 09:26:10;;;;;;;17.17;12.90;;;24.40;99.90;;;;;;5064571;28;20041;-68
2021/07/23 09:28:42;;;;;;;19.58;11.88;;;24.60;99.90;;;;;;5083856;28;20095;-67
2021/07/23 09:31:18;;;;;;;20.63;11.88;;;24.80;99.90;;;;;;5050780;28;20041;-68
2021/07/23 09:33:46;;;;;;;22.27;12.73;;;25.10;99.90;;;;;;5049003;28;20483;-68
2021/07/23 09:36:13;;;;;;;15.75;11.80;;;25.30;99.90;;;;;;5050468;28;20813;-68
2021/07/23 09:38:46;;;;;;;14.88;10.80;;;25.40;99.90;;;;;;5050802;28;20045;-68
2021/07/23 09:41:22;;;;;;;14.63;9.88;;;25.60;99.90;;;;;;5048289;28;20049;-67
2021/07/23 09:43:57;;;;;;;14.13;9.85;;;25.90;99.90;;;;;;5050222;28;20048;-68
2021/07/23 09:46:26;;;;;;;14.35;10.35;;;26.30;99.90;;;;;;5049020;28;20458;-69
2021/07/23 09:48:55;;;;;;;19.60;9.98;;;26.50;99.90;;;;;;5028980;28;20138;-69
2021/07/23 09:51:25;;;;;;;18.27;11.55;;;26.70;99.90;;;;;;5042935;28;20037;-68
2021/07/23 09:53:55;;;;;;;13.32;10.35;;;26.80;99.90;;;;;;5081146;28;20040;-68
2021/07/23 09:56:24;;;;;;;17.08;10.93;;;26.90;99.90;;;;;;5050556;28;20056;-69
2021/07/23 09:58:55;;;;;;;13.65;10.35;;;27.10;99.90;;;;;;5068363;28;20099;-69
2021/07/23 10:01:28;;;;;;;12.52;9.35;;;27.30;99.90;;;;;;5056505;28;20491;-69
2021/07/23 10:04:00;;;;;;;15.25;10.02;;;27.50;99.90;;;;;;5085505;28;20032;-69
2021/07/23 10:06:42;;;;;;;14.82;10.45;;;27.50;99.90;;;;;;5085939;28;20041;-69
2021/07/23 10:09:11;;;;;;;14.45;10.30;;;27.60;99.90;;;;;;5053524;28;20037;-69
2021/07/23 10:11:41;;;;;;;13.20;10.00;;;27.60;99.90;;;;;;5053053;28;20052;-69
2021/07/23 10:14:10;;;;;;;13.73;10.68;;;27.50;99.90;;;;;;5051895;28;20048;-69
2021/07/23 10:16:39;;;;;;;13.63;9.25;;;27.60;99.90;;;;;;5052437;28;20487;-69
2021/07/23 10:19:08;;;;;;;18.42;10.75;;;27.70;99.90;;;;;;5053181;28;20052;-69
2021/07/23 10:21:35;;;;;;;15.88;9.85;;;27.80;99.90;;;;;;5067898;28;20052;-69
2021/07/23 10:24:04;;;;;;;14.88;10.27;;;27.90;99.90;;;;;;5084065;28;20507;-67
2021/07/23 10:26:31;;;;;;;14.88;10.80;;;28.10;99.90;;;;;;5052703;28;20444;-69
2021/07/23 10:28:59;;;;;;;15.65;10.10;;;28.20;99.90;;;;;;5053038;28;20040;-69
2021/07/23 10:31:31;;;;;;;13.50;10.65;;;28.30;99.90;;;;;;5054029;28;20037;-69
2021/07/23 10:34:00;;;;;;;14.05;9.80;;;28.10;99.90;;;;;;5052199;28;20145;-69
2021/07/23 10:36:30;;;;;;;14.45;9.52;;;28.60;99.90;;;;;;5052146;28;20136;-69
2021/07/23 10:39:23;;;;;;;12.65;9.52;;;29.00;99.90;;;;;;5035260;28;20041;-69
2021/07/23 10:41:50;;;;;;;22.67;10.95;;;29.40;99.90;;;;;;5040498;28;20048;-69
2021/07/23 10:44:27;;;;;;;15.00;10.02;;;29.70;99.90;;;;;;5052709;28;20090;-69
2021/07/23 10:46:58;;;;;;;13.50;9.82;;;29.80;99.90;;;;;;5052928;28;20068;-69
2021/07/23 10:49:32;;;;;;;17.25;9.98;;;29.70;99.90;;;;;;5052228;28;20088;-69
2021/07/23 10:52:05;;;;;;;12.48;9.45;;;29.50;99.90;;;;;;5051882;28;20033;-69
2021/07/23 10:54:34;;;;;;;16.63;10.77;;;29.20;99.90;;;;;;5052977;28;20436;-69
2021/07/23 10:57:02;;;;;;;16.05;10.10;;;28.70;99.90;;;;;;5052825;28;20645;-67
2021/07/23 10:59:50;;;;;;;18.58;10.90;;;28.50;99.90;;;;;;5051947;28;20396;-69
2021/07/23 11:02:19;;;;;;;11.88;9.15;;;28.90;99.90;;;;;;5049767;28;20095;-69
2021/07/23 11:04:48;;;;;;;18.35;9.80;;;29.20;99.90;;;;;;5049685;28;20491;-67
2021/07/23 11:07:22;;;;;;;14.02;9.77;;;29.30;99.90;;;;;;5051224;28;20045;-69
2021/07/23 11:09:50;;;;;;;16.17;10.20;;;29.30;99.80;;;;;;5050114;28;20050;-68
2021/07/23 11:12:28;;;;;;;13.23;9.60;;;29.60;99.20;;;;;;5052164;28;20143;-68
2021/07/23 11:14:59;;;;;;;18.13;10.63;;;30.20;99.00;;;;;;5049970;28;20404;-68
2021/07/23 11:17:30;;;;;;;13.13;10.13;;;30.70;97.70;;;;;;5084137;28;20041;-68
2021/07/23 11:20:01;;;;;;;13.43;9.70;;;30.70;97.00;;;;;;5052967;28;20041;-68
2021/07/23 11:22:32;;;;;;;;;;;30.80;96.80;;;;;;5052338;28;20041;-68
2021/07/23 11:25:01;;;;;;;20.13;10.40;;;31.00;96.80;;;;;;5044917;28;19932;-68
2021/07/23 11:27:34;;;;;;;14.43;10.73;;;31.30;96.50;;;;;;5065445;28;20041;-68
2021/07/23 11:30:15;;;;;;;15.68;11.10;;;31.50;94.90;;;;;;5052099;28;20037;-69
2021/07/23 11:32:57;;;;;;;13.35;9.90;;;31.50;94.50;;;;;;5052803;28;20095;-69
2021/07/23 11:35:26;;;;;;;14.30;9.75;;;31.60;94.40;;;;;;5078283;28;20127;-68
2021/07/23 11:37:56;;;;;;;16.25;10.07;;;32.00;94.00;;;;;;5050936;28;20048;-68
2021/07/23 11:40:24;;;;;;;12.93;10.13;;;32.50;93.80;;;;;;5033180;28;20135;-68
2021/07/23 11:42:54;;;;;;;23.65;18.05;;;33.10;92.80;;;;;;5047098;28;20065;-68
2021/07/23 11:45:33;;;;;;;11.63;10.15;;;33.40;91.50;;;;;;5050494;28;20040;-68
2021/07/23 11:48:09;;;;;;;15.45;10.40;;;33.40;90.60;;;;;;5049069;28;20049;-69
2021/07/23 11:50:37;;;;;;;13.35;10.60;;;32.50;91.00;;;;;;5050596;28;20094;-68
2021/07/23 11:53:09;;;;;;;14.88;10.90;;;31.80;91.60;;;;;;5049887;28;20044;-68
2021/07/23 11:55:41;;;;;;;13.40;9.35;;;31.60;91.70;;;;;;5051006;28;20507;-68
2021/07/23 11:58:26;;;;;;;11.65;9.63;;;31.50;92.40;;;;;;5049448;28;20159;-68
2021/07/23 12:00:54;;;;;;;12.35;9.70;;;32.50;91.60;;;;;;5055879;28;20511;-68
2021/07/23 12:03:26;;;;;;;19.40;10.70;;;33.20;89.90;;;;;;5031681;28;20517;-68
2021/07/23 12:06:09;;;;;;;13.25;10.38;;;33.50;88.90;;;;;;5051301;28;20459;-69
2021/07/23 12:08:42;;;;;;;13.50;10.38;;;33.80;87.80;;;;;;5057539;28;20041;-69
2021/07/23 12:11:13;;;;;;;12.55;9.65;;;34.20;85.90;;;;;;5047775;28;20037;-69
2021/07/23 12:13:58;;;;;;;11.52;9.93;;;34.20;86.20;;;;;;5045080;28;20053;-69
2021/07/23 12:16:26;;;;;;;14.50;9.55;;;34.80;85.30;;;;;;5049816;28;20155;-69
2021/07/23 12:18:58;;;;;;;12.15;10.13;;;34.90;83.20;;;;;;5049907;28;20511;-68
2021/07/23 12:21:27;;;;;;;11.48;8.98;;;35.20;82.10;;;;;;5048896;28;20044;-69
2021/07/23 12:23:59;;;;;;;13.85;9.70;;;35.90;80.80;;;;;;5050517;28;20037;-68
2021/07/23 12:26:28;;;;;;;13.65;9.80;;;36.60;78.60;;;;;;5048465;28;20037;-68
2021/07/23 12:28:57;;;;;;;11.48;9.88;;;36.80;77.60;;;;;;5048987;28;20063;-69
2021/07/23 12:31:25;;;;;;;13.60;9.82;;;36.50;76.20;;;;;;5050353;28;20462;-69
2021/07/23 12:34:05;;;;;;;13.02;9.20;;;36.50;76.40;;;;;;5051049;28;20091;-69
2021/07/23 12:36:43;;;;;;;12.93;8.98;;;37.10;75.80;;;;;;5049569;28;20547;-69
2021/07/23 12:39:10;;;;;;;11.60;8.57;;;37.60;72.50;;;;;;5047567;28;20044;-69
2021/07/23 12:41:40;;;;;;;12.68;9.68;;;37.60;72.90;;;;;;5049607;28;20060;-69
2021/07/23 12:44:09;;;;;;;13.95;9.95;;;37.70;71.10;;;;;;5049525;28;20063;-69
2021/07/23 12:46:43;;;;;;;12.48;9.75;;;37.30;70.90;;;;;;5044035;28;20080;-69
2021/07/23 12:49:12;;;;;;;10.15;8.93;;;36.50;73.00;;;;;;5048197;28;20469;-69